sensor_id;sensor_type;location;lat;lon;timestamp;P1;durP1;ratioP1;P2;durP2;ratioP2
2035;SDS011;23642;42.658;23.350;2023-06-05T00:00:48;81.63;;;75.87;;
2035;SDS011;23642;42.658;23.350;2023-06-05T00:03:15;88.03;;;81.60;;
2035;SDS011;23642;42.658;23.350;2023-06-05T00:05:43;83.10;;;77.40;;
2035;SDS011;23642;42.658;23.350;2023-06-05T00:08:10;84.73;;;77.97;;
2035;SDS011;23642;42.658;23.350;2023-06-05T00:10:37;86.33;;;80.00;;
2035;SDS011;23642;42.658;23.350;2023-06-05T00:13:05;83.73;;;77.50;;
2035;SDS011;23642;42.658;23.350;2023-06-05T00:15:38;83.87;;;77.77;;
2035;SDS011;23642;42.658;23.350;2023-06-05T00:18:17;88.60;;;82.20;;
2035;SDS011;23642;42.658;23.350;2023-06-05T00:20:48;83.70;;;78.07;;
2035;SDS011;23642;42.658;23.350;2023-06-05T00:23:17;85.40;;;79.33;;
2035;SDS011;23642;42.658;23.350;2023-06-05T00:25:44;86.67;;;80.20;;
2035;SDS011;23642;42.658;23.350;2023-06-05T00:28:15;85.90;;;80.10;;
2035;SDS011;23642;42.658;23.350;2023-06-05T00:30:44;88.87;;;81.80;;
2035;SDS011;23642;42.658;23.350;2023-06-05T00:33:11;82.20;;;76.67;;
2035;SDS011;23642;42.658;23.350;2023-06-05T00:35:41;84.40;;;78.67;;
2035;SDS011;23642;42.658;23.350;2023-06-05T00:38:09;83.97;;;78.20;;
2035;SDS011;23642;42.658;23.350;2023-06-05T00:40:41;84.63;;;78.73;;
2035;SDS011;23642;42.658;23.350;2023-06-05T00:43:11;83.77;;;77.90;;
2035;SDS011;23642;42.658;23.350;2023-06-05T00:45:41;84.40;;;78.47;;
2035;SDS011;23642;42.658;23.350;2023-06-05T00:48:12;85.00;;;79.13;;
2035;SDS011;23642;42.658;23.350;2023-06-05T00:50:40;84.07;;;77.97;;
2035;SDS011;23642;42.658;23.350;2023-06-05T00:53:07;82.90;;;77.03;;
2035;SDS011;23642;42.658;23.350;2023-06-05T00:55:35;82.37;;;76.77;;
2035;SDS011;23642;42.658;23.350;2023-06-05T00:58:02;82.53;;;76.73;;
2035;SDS011;23642;42.658;23.350;2023-06-05T01:00:31;79.77;;;74.27;;
2035;SDS011;23642;42.658;23.350;2023-06-05T01:02:59;80.70;;;75.27;;
2035;SDS011;23642;42.658;23.350;2023-06-05T01:05:30;81.60;;;75.90;;
2035;SDS011;23642;42.658;23.350;2023-06-05T01:07:58;82.73;;;77.13;;
2035;SDS011;23642;42.658;23.350;2023-06-05T01:10:31;81.80;;;76.40;;
2035;SDS011;23642;42.658;23.350;2023-06-05T01:13:02;82.43;;;76.47;;
2035;SDS011;23642;42.658;23.350;2023-06-05T01:15:44;81.03;;;75.43;;
2035;SDS011;23642;42.658;23.350;2023-06-05T01:18:16;81.83;;;76.40;;
2035;SDS011;23642;42.658;23.350;2023-06-05T01:20:55;84.90;;;78.23;;
2035;SDS011;23642;42.658;23.350;2023-06-05T01:23:30;82.30;;;76.90;;
2035;SDS011;23642;42.658;23.350;2023-06-05T01:26:05;81.43;;;75.87;;
2035;SDS011;23642;42.658;23.350;2023-06-05T01:28:41;82.23;;;76.60;;
2035;SDS011;23642;42.658;23.350;2023-06-05T01:31:23;84.40;;;78.60;;
2035;SDS011;23642;42.658;23.350;2023-06-05T01:33:57;81.30;;;75.77;;
2035;SDS011;23642;42.658;23.350;2023-06-05T01:36:29;80.57;;;75.17;;
2035;SDS011;23642;42.658;23.350;2023-06-05T01:38:58;80.53;;;74.93;;
2035;SDS011;23642;42.658;23.350;2023-06-05T01:41:35;78.67;;;73.57;;
2035;SDS011;23642;42.658;23.350;2023-06-05T01:44:04;80.70;;;75.00;;
2035;SDS011;23642;42.658;23.350;2023-06-05T01:46:39;77.67;;;72.50;;
2035;SDS011;23642;42.658;23.350;2023-06-05T01:49:07;81.10;;;75.50;;
2035;SDS011;23642;42.658;23.350;2023-06-05T01:51:35;80.77;;;74.93;;
2035;SDS011;23642;42.658;23.350;2023-06-05T01:54:06;82.87;;;77.10;;
2035;SDS011;23642;42.658;23.350;2023-06-05T01:56:35;79.43;;;73.93;;
2035;SDS011;23642;42.658;23.350;2023-06-05T01:59:04;82.43;;;76.40;;
2035;SDS011;23642;42.658;23.350;2023-06-05T02:01:32;82.30;;;76.73;;
2035;SDS011;23642;42.658;23.350;2023-06-05T02:04:00;79.20;;;73.90;;
2035;SDS011;23642;42.658;23.350;2023-06-05T02:06:33;79.27;;;73.60;;
2035;SDS011;23642;42.658;23.350;2023-06-05T02:09:15;78.47;;;73.10;;
2035;SDS011;23642;42.658;23.350;2023-06-05T02:11:42;78.70;;;73.53;;
2035;SDS011;23642;42.658;23.350;2023-06-05T02:14:10;80.03;;;74.73;;
2035;SDS011;23642;42.658;23.350;2023-06-05T02:16:41;82.40;;;75.57;;
2035;SDS011;23642;42.658;23.350;2023-06-05T02:19:10;79.90;;;73.90;;
2035;SDS011;23642;42.658;23.350;2023-06-05T02:21:44;82.00;;;76.50;;
2035;SDS011;23642;42.658;23.350;2023-06-05T02:24:10;78.57;;;72.80;;
2035;SDS011;23642;42.658;23.350;2023-06-05T02:26:42;78.97;;;73.53;;
2035;SDS011;23642;42.658;23.350;2023-06-05T02:29:09;80.13;;;74.50;;
2035;SDS011;23642;42.658;23.350;2023-06-05T02:31:46;82.17;;;76.10;;
2035;SDS011;23642;42.658;23.350;2023-06-05T02:34:16;80.73;;;75.07;;
2035;SDS011;23642;42.658;23.350;2023-06-05T02:36:44;80.87;;;75.37;;
2035;SDS011;23642;42.658;23.350;2023-06-05T02:39:12;76.50;;;71.20;;
2035;SDS011;23642;42.658;23.350;2023-06-05T02:41:42;77.90;;;72.40;;
2035;SDS011;23642;42.658;23.350;2023-06-05T02:44:13;78.97;;;73.70;;
2035;SDS011;23642;42.658;23.350;2023-06-05T02:46:40;81.10;;;75.00;;
2035;SDS011;23642;42.658;23.350;2023-06-05T02:49:10;77.40;;;71.93;;
2035;SDS011;23642;42.658;23.350;2023-06-05T02:51:51;80.80;;;75.03;;
2035;SDS011;23642;42.658;23.350;2023-06-05T02:54:20;81.03;;;75.13;;
2035;SDS011;23642;42.658;23.350;2023-06-05T02:56:49;78.90;;;73.50;;
2035;SDS011;23642;42.658;23.350;2023-06-05T02:59:17;80.93;;;74.97;;
2035;SDS011;23642;42.658;23.350;2023-06-05T03:01:52;81.57;;;75.67;;
2035;SDS011;23642;42.658;23.350;2023-06-05T03:04:22;77.50;;;72.10;;
2035;SDS011;23642;42.658;23.350;2023-06-05T03:06:49;80.23;;;74.53;;
2035;SDS011;23642;42.658;23.350;2023-06-05T03:09:18;79.43;;;73.83;;
2035;SDS011;23642;42.658;23.350;2023-06-05T03:11:45;79.93;;;74.40;;
2035;SDS011;23642;42.658;23.350;2023-06-05T03:14:13;78.73;;;73.10;;
2035;SDS011;23642;42.658;23.350;2023-06-05T03:16:41;79.47;;;73.90;;
2035;SDS011;23642;42.658;23.350;2023-06-05T03:19:09;81.03;;;74.13;;
2035;SDS011;23642;42.658;23.350;2023-06-05T03:21:41;77.73;;;72.10;;
2035;SDS011;23642;42.658;23.350;2023-06-05T03:24:09;76.23;;;70.60;;
2035;SDS011;23642;42.658;23.350;2023-06-05T03:26:53;78.23;;;72.83;;
2035;SDS011;23642;42.658;23.350;2023-06-05T03:29:23;78.60;;;73.13;;
2035;SDS011;23642;42.658;23.350;2023-06-05T03:31:52;76.77;;;71.07;;
2035;SDS011;23642;42.658;23.350;2023-06-05T03:34:22;80.40;;;74.63;;
2035;SDS011;23642;42.658;23.350;2023-06-05T03:36:57;76.80;;;71.20;;
2035;SDS011;23642;42.658;23.350;2023-06-05T03:39:27;78.60;;;72.90;;
2035;SDS011;23642;42.658;23.350;2023-06-05T03:41:58;77.10;;;71.60;;
2035;SDS011;23642;42.658;23.350;2023-06-05T03:44:29;82.40;;;75.97;;
2035;SDS011;23642;42.658;23.350;2023-06-05T03:47:08;80.10;;;74.40;;
2035;SDS011;23642;42.658;23.350;2023-06-05T03:49:42;80.33;;;74.50;;
2035;SDS011;23642;42.658;23.350;2023-06-05T03:52:21;79.67;;;74.07;;
2035;SDS011;23642;42.658;23.350;2023-06-05T03:54:52;81.80;;;75.93;;
2035;SDS011;23642;42.658;23.350;2023-06-05T03:57:25;82.20;;;76.50;;
2035;SDS011;23642;42.658;23.350;2023-06-05T03:59:53;82.67;;;76.67;;
2035;SDS011;23642;42.658;23.350;2023-06-05T04:02:39;82.57;;;76.40;;
2035;SDS011;23642;42.658;23.350;2023-06-05T04:05:24;82.77;;;76.50;;
2035;SDS011;23642;42.658;23.350;2023-06-05T04:07:52;83.77;;;77.77;;
2035;SDS011;23642;42.658;23.350;2023-06-05T04:10:19;81.87;;;76.27;;
2035;SDS011;23642;42.658;23.350;2023-06-05T04:12:46;82.33;;;76.63;;
2035;SDS011;23642;42.658;23.350;2023-06-05T04:15:14;84.20;;;77.67;;
2035;SDS011;23642;42.658;23.350;2023-06-05T04:17:44;83.40;;;77.27;;
2035;SDS011;23642;42.658;23.350;2023-06-05T04:20:11;89.20;;;82.80;;
2035;SDS011;23642;42.658;23.350;2023-06-05T04:22:40;87.57;;;81.17;;
2035;SDS011;23642;42.658;23.350;2023-06-05T04:25:12;87.00;;;80.20;;
2035;SDS011;23642;42.658;23.350;2023-06-05T04:27:45;88.33;;;81.93;;
2035;SDS011;23642;42.658;23.350;2023-06-05T04:30:22;90.43;;;83.23;;
2035;SDS011;23642;42.658;23.350;2023-06-05T04:33:01;90.63;;;84.10;;
2035;SDS011;23642;42.658;23.350;2023-06-05T04:35:31;90.20;;;83.70;;
2035;SDS011;23642;42.658;23.350;2023-06-05T04:38:06;88.73;;;82.27;;
2035;SDS011;23642;42.658;23.350;2023-06-05T04:40:46;92.07;;;85.10;;
2035;SDS011;23642;42.658;23.350;2023-06-05T04:43:15;90.30;;;83.40;;
2035;SDS011;23642;42.658;23.350;2023-06-05T04:45:44;91.47;;;83.97;;
2035;SDS011;23642;42.658;23.350;2023-06-05T04:48:12;92.43;;;85.13;;
2035;SDS011;23642;42.658;23.350;2023-06-05T04:50:42;90.30;;;82.83;;
2035;SDS011;23642;42.658;23.350;2023-06-05T04:53:22;94.30;;;87.30;;
2035;SDS011;23642;42.658;23.350;2023-06-05T04:55:49;94.33;;;86.60;;
2035;SDS011;23642;42.658;23.350;2023-06-05T04:58:17;91.77;;;85.17;;
2035;SDS011;23642;42.658;23.350;2023-06-05T05:00:48;88.97;;;82.43;;
2035;SDS011;23642;42.658;23.350;2023-06-05T05:03:15;92.80;;;86.27;;
2035;SDS011;23642;42.658;23.350;2023-06-05T05:05:42;94.73;;;86.60;;
2035;SDS011;23642;42.658;23.350;2023-06-05T05:08:10;95.00;;;87.30;;
2035;SDS011;23642;42.658;23.350;2023-06-05T05:10:37;94.27;;;86.77;;
2035;SDS011;23642;42.658;23.350;2023-06-05T05:13:04;93.73;;;86.80;;
2035;SDS011;23642;42.658;23.350;2023-06-05T05:15:31;95.70;;;88.83;;
2035;SDS011;23642;42.658;23.350;2023-06-05T05:18:00;96.83;;;89.53;;
2035;SDS011;23642;42.658;23.350;2023-06-05T05:20:30;98.03;;;90.53;;
2035;SDS011;23642;42.658;23.350;2023-06-05T05:22:59;97.70;;;90.70;;
2035;SDS011;23642;42.658;23.350;2023-06-05T05:25:39;100.73;;;93.53;;
2035;SDS011;23642;42.658;23.350;2023-06-05T05:28:09;98.33;;;91.33;;
2035;SDS011;23642;42.658;23.350;2023-06-05T05:30:36;101.30;;;93.33;;
2035;SDS011;23642;42.658;23.350;2023-06-05T05:33:06;98.87;;;91.27;;
2035;SDS011;23642;42.658;23.350;2023-06-05T05:35:37;101.00;;;92.60;;
2035;SDS011;23642;42.658;23.350;2023-06-05T05:38:18;105.07;;;95.93;;
2035;SDS011;23642;42.658;23.350;2023-06-05T05:40:55;98.07;;;90.67;;
2035;SDS011;23642;42.658;23.350;2023-06-05T05:43:27;98.93;;;91.73;;
2035;SDS011;23642;42.658;23.350;2023-06-05T05:45:55;102.07;;;93.23;;
2035;SDS011;23642;42.658;23.350;2023-06-05T05:48:31;102.30;;;94.83;;
2035;SDS011;23642;42.658;23.350;2023-06-05T05:51:07;100.37;;;93.27;;
2035;SDS011;23642;42.658;23.350;2023-06-05T05:56:52;103.20;;;95.80;;
2035;SDS011;23642;42.658;23.350;2023-06-05T05:59:48;105.70;;;97.40;;
2035;SDS011;23642;42.658;23.350;2023-06-05T06:05:15;104.07;;;96.07;;
2035;SDS011;23642;42.658;23.350;2023-06-05T06:07:55;104.07;;;95.73;;
2035;SDS011;23642;42.658;23.350;2023-06-05T06:10:25;104.23;;;96.53;;
2035;SDS011;23642;42.658;23.350;2023-06-05T06:13:33;104.00;;;96.60;;
2035;SDS011;23642;42.658;23.350;2023-06-05T06:16:06;105.00;;;97.20;;
2035;SDS011;23642;42.658;23.350;2023-06-05T06:18:38;109.83;;;101.47;;
2035;SDS011;23642;42.658;23.350;2023-06-05T06:21:38;108.53;;;101.13;;
2035;SDS011;23642;42.658;23.350;2023-06-05T06:24:16;108.83;;;101.27;;
2035;SDS011;23642;42.658;23.350;2023-06-05T06:27:00;111.70;;;103.83;;
2035;SDS011;23642;42.658;23.350;2023-06-05T06:29:28;114.53;;;105.33;;
2035;SDS011;23642;42.658;23.350;2023-06-05T06:32:25;113.70;;;106.10;;
2035;SDS011;23642;42.658;23.350;2023-06-05T06:35:27;112.33;;;104.43;;
2035;SDS011;23642;42.658;23.350;2023-06-05T06:54:52;118.17;;;110.17;;
2035;SDS011;23642;42.658;23.350;2023-06-05T06:57:48;120.10;;;111.57;;
2035;SDS011;23642;42.658;23.350;2023-06-05T07:00:58;116.27;;;108.27;;
2035;SDS011;23642;42.658;23.350;2023-06-05T07:42:24;117.10;;;109.20;;
2035;SDS011;23642;42.658;23.350;2023-06-05T07:45:13;116.40;;;108.20;;
2035;SDS011;23642;42.658;23.350;2023-06-05T07:48:22;117.90;;;109.27;;
2035;SDS011;23642;42.658;23.350;2023-06-05T07:51:19;118.10;;;110.27;;
2035;SDS011;23642;42.658;23.350;2023-06-05T07:53:46;117.37;;;109.53;;
2035;SDS011;23642;42.658;23.350;2023-06-05T07:56:15;116.20;;;107.67;;
2035;SDS011;23642;42.658;23.350;2023-06-05T08:02:14;121.30;;;112.83;;
2035;SDS011;23642;42.658;23.350;2023-06-05T08:05:22;116.40;;;108.10;;
2035;SDS011;23642;42.658;23.350;2023-06-05T08:08:12;115.67;;;107.87;;
2035;SDS011;23642;42.658;23.350;2023-06-05T08:10:46;118.43;;;110.03;;
2035;SDS011;23642;42.658;23.350;2023-06-05T08:14:01;116.93;;;108.90;;
2035;SDS011;23642;42.658;23.350;2023-06-05T08:20:33;117.87;;;109.70;;
2035;SDS011;23642;42.658;23.350;2023-06-05T08:39:55;115.67;;;107.80;;
2035;SDS011;23642;42.658;23.350;2023-06-05T08:40:59;117.03;;;108.80;;
2035;SDS011;23642;42.658;23.350;2023-06-05T09:33:14;109.90;;;102.40;;
2035;SDS011;23642;42.658;23.350;2023-06-05T10:17:38;113.37;;;105.30;;
2035;SDS011;23642;42.658;23.350;2023-06-05T10:20:56;114.07;;;106.10;;
2035;SDS011;23642;42.658;23.350;2023-06-05T10:24:22;113.03;;;105.20;;
2035;SDS011;23642;42.658;23.350;2023-06-05T10:28:15;117.43;;;109.53;;
2035;SDS011;23642;42.658;23.350;2023-06-05T10:31:26;115.47;;;107.67;;
2035;SDS011;23642;42.658;23.350;2023-06-05T10:37:41;123.33;;;115.10;;
2035;SDS011;23642;42.658;23.350;2023-06-05T10:40:34;123.47;;;115.10;;
2035;SDS011;23642;42.658;23.350;2023-06-05T10:44:07;125.40;;;116.70;;
2035;SDS011;23642;42.658;23.350;2023-06-05T10:46:35;126.27;;;117.77;;
2035;SDS011;23642;42.658;23.350;2023-06-05T11:05:33;117.90;;;109.60;;
2035;SDS011;23642;42.658;23.350;2023-06-05T11:08:45;116.73;;;108.70;;
2035;SDS011;23642;42.658;23.350;2023-06-05T12:38:21;106.43;;;99.70;;
2035;SDS011;23642;42.658;23.350;2023-06-05T12:47:50;107.50;;;100.90;;
2035;SDS011;23642;42.658;23.350;2023-06-05T12:51:02;107.93;;;100.57;;
2035;SDS011;23642;42.658;23.350;2023-06-05T12:54:14;106.70;;;99.77;;
2035;SDS011;23642;42.658;23.350;2023-06-05T13:03:50;105.63;;;99.13;;
2035;SDS011;23642;42.658;23.350;2023-06-05T13:06:53;108.73;;;102.03;;
2035;SDS011;23642;42.658;23.350;2023-06-05T13:09:55;108.47;;;101.57;;
2035;SDS011;23642;42.658;23.350;2023-06-05T13:12:39;105.73;;;99.17;;
2035;SDS011;23642;42.658;23.350;2023-06-05T13:15:38;107.90;;;101.30;;
2035;SDS011;23642;42.658;23.350;2023-06-05T13:18:07;104.30;;;98.00;;
2035;SDS011;23642;42.658;23.350;2023-06-05T13:20:46;106.03;;;99.50;;
2035;SDS011;23642;42.658;23.350;2023-06-05T13:33:35;107.30;;;100.90;;
2035;SDS011;23642;42.658;23.350;2023-06-05T13:46:24;104.83;;;98.63;;
2035;SDS011;23642;42.658;23.350;2023-06-05T13:48:53;108.40;;;102.00;;
2035;SDS011;23642;42.658;23.350;2023-06-05T13:54:31;107.10;;;100.90;;
2035;SDS011;23642;42.658;23.350;2023-06-05T13:57:22;110.10;;;103.13;;
2035;SDS011;23642;42.658;23.350;2023-06-05T14:00:11;107.73;;;101.23;;
2035;SDS011;23642;42.658;23.350;2023-06-05T14:02:44;106.70;;;100.30;;
2035;SDS011;23642;42.658;23.350;2023-06-05T14:08:56;107.47;;;100.70;;
2035;SDS011;23642;42.658;23.350;2023-06-05T14:15:21;108.60;;;102.10;;
2035;SDS011;23642;42.658;23.350;2023-06-05T14:18:16;107.20;;;100.80;;
2035;SDS011;23642;42.658;23.350;2023-06-05T14:23:35;106.47;;;100.20;;
2035;SDS011;23642;42.658;23.350;2023-06-05T14:26:24;108.23;;;101.87;;
2035;SDS011;23642;42.658;23.350;2023-06-05T14:29:02;102.93;;;96.57;;
2035;SDS011;23642;42.658;23.350;2023-06-05T14:32:00;101.30;;;95.07;;
2035;SDS011;23642;42.658;23.350;2023-06-05T14:34:47;97.10;;;90.90;;
2035;SDS011;23642;42.658;23.350;2023-06-05T14:37:14;101.57;;;94.87;;
2035;SDS011;23642;42.658;23.350;2023-06-05T14:39:47;99.30;;;92.90;;
2035;SDS011;23642;42.658;23.350;2023-06-05T14:42:33;99.50;;;93.03;;
2035;SDS011;23642;42.658;23.350;2023-06-05T14:45:29;101.13;;;94.50;;
2035;SDS011;23642;42.658;23.350;2023-06-05T14:55:43;98.77;;;92.57;;
2035;SDS011;23642;42.658;23.350;2023-06-05T15:01:57;103.10;;;96.47;;
2035;SDS011;23642;42.658;23.350;2023-06-05T15:05:04;101.70;;;95.20;;
2035;SDS011;23642;42.658;23.350;2023-06-05T15:08:06;102.53;;;95.40;;
2035;SDS011;23642;42.658;23.350;2023-06-05T15:10:58;101.57;;;94.77;;
2035;SDS011;23642;42.658;23.350;2023-06-05T15:13:56;103.57;;;96.80;;
2035;SDS011;23642;42.658;23.350;2023-06-05T15:16:44;103.60;;;97.10;;
2035;SDS011;23642;42.658;23.350;2023-06-05T15:22:41;103.27;;;96.60;;
2035;SDS011;23642;42.658;23.350;2023-06-05T15:25:35;102.27;;;95.73;;
2035;SDS011;23642;42.658;23.350;2023-06-05T15:28:19;101.23;;;94.73;;
2035;SDS011;23642;42.658;23.350;2023-06-05T15:34:10;102.93;;;96.27;;
2035;SDS011;23642;42.658;23.350;2023-06-05T15:37:11;104.33;;;97.33;;
2035;SDS011;23642;42.658;23.350;2023-06-05T15:40:07;104.90;;;98.13;;
2035;SDS011;23642;42.658;23.350;2023-06-05T15:43:07;104.47;;;97.70;;
2035;SDS011;23642;42.658;23.350;2023-06-05T15:45:49;104.57;;;97.87;;
2035;SDS011;23642;42.658;23.350;2023-06-05T15:48:29;101.87;;;95.33;;
2035;SDS011;23642;42.658;23.350;2023-06-05T15:50:59;101.70;;;94.87;;
2035;SDS011;23642;42.658;23.350;2023-06-05T15:53:29;102.27;;;95.27;;
2035;SDS011;23642;42.658;23.350;2023-06-05T15:56:32;101.93;;;95.10;;
2035;SDS011;23642;42.658;23.350;2023-06-05T15:59:48;98.53;;;92.07;;
2035;SDS011;23642;42.658;23.350;2023-06-05T16:02:54;102.13;;;95.30;;
2035;SDS011;23642;42.658;23.350;2023-06-05T16:05:45;101.43;;;94.73;;
2035;SDS011;23642;42.658;23.350;2023-06-05T16:08:13;104.23;;;97.13;;
2035;SDS011;23642;42.658;23.350;2023-06-05T16:19:31;104.10;;;97.13;;
2035;SDS011;23642;42.658;23.350;2023-06-05T16:22:21;102.87;;;96.03;;
2035;SDS011;23642;42.658;23.350;2023-06-05T16:25:07;103.03;;;95.90;;
2035;SDS011;23642;42.658;23.350;2023-06-05T16:27:38;104.70;;;97.70;;
2035;SDS011;23642;42.658;23.350;2023-06-05T16:30:19;102.67;;;95.47;;
2035;SDS011;23642;42.658;23.350;2023-06-05T16:33:29;102.30;;;95.53;;
2035;SDS011;23642;42.658;23.350;2023-06-05T16:36:19;105.47;;;98.53;;
2035;SDS011;23642;42.658;23.350;2023-06-05T16:39:51;101.33;;;94.80;;
2035;SDS011;23642;42.658;23.350;2023-06-05T16:42:42;102.93;;;96.20;;
2035;SDS011;23642;42.658;23.350;2023-06-05T16:45:17;101.13;;;94.20;;
2035;SDS011;23642;42.658;23.350;2023-06-05T16:48:23;100.53;;;93.90;;
2035;SDS011;23642;42.658;23.350;2023-06-05T16:51:18;99.73;;;93.23;;
2035;SDS011;23642;42.658;23.350;2023-06-05T16:56:26;101.47;;;94.83;;
2035;SDS011;23642;42.658;23.350;2023-06-05T16:58:00;102.23;;;95.53;;
2035;SDS011;23642;42.658;23.350;2023-06-05T17:01:51;101.13;;;94.63;;
2035;SDS011;23642;42.658;23.350;2023-06-05T17:04:12;99.53;;;93.07;;
2035;SDS011;23642;42.658;23.350;2023-06-05T17:06:47;103.30;;;96.37;;
2035;SDS011;23642;42.658;23.350;2023-06-05T17:09:51;100.57;;;93.87;;
2035;SDS011;23642;42.658;23.350;2023-06-05T17:12:48;102.10;;;95.43;;
2035;SDS011;23642;42.658;23.350;2023-06-05T17:15:22;103.00;;;96.30;;
2035;SDS011;23642;42.658;23.350;2023-06-05T17:18:18;101.13;;;94.30;;
2035;SDS011;23642;42.658;23.350;2023-06-05T17:24:15;103.50;;;96.70;;
2035;SDS011;23642;42.658;23.350;2023-06-05T17:33:33;102.13;;;95.43;;
2035;SDS011;23642;42.658;23.350;2023-06-05T18:28:39;99.20;;;92.57;;
2035;SDS011;23642;42.658;23.350;2023-06-05T19:35:42;99.63;;;92.87;;
2035;SDS011;23642;42.658;23.350;2023-06-05T19:45:42;100.07;;;93.40;;
2035;SDS011;23642;42.658;23.350;2023-06-05T19:52:18;102.13;;;95.33;;
2035;SDS011;23642;42.658;23.350;2023-06-05T19:56:58;97.37;;;90.87;;
2035;SDS011;23642;42.658;23.350;2023-06-05T20:03:36;95.23;;;89.03;;
2035;SDS011;23642;42.658;23.350;2023-06-05T20:25:53;101.23;;;94.60;;
2035;SDS011;23642;42.658;23.350;2023-06-05T20:28:53;97.90;;;91.70;;
2035;SDS011;23642;42.658;23.350;2023-06-05T20:32:05;99.13;;;92.63;;
2035;SDS011;23642;42.658;23.350;2023-06-05T20:34:31;100.47;;;94.17;;
2035;SDS011;23642;42.658;23.350;2023-06-05T20:37:29;100.67;;;94.20;;
2035;SDS011;23642;42.658;23.350;2023-06-05T20:40:19;100.50;;;93.60;;
2035;SDS011;23642;42.658;23.350;2023-06-05T20:45:57;99.43;;;93.17;;
2035;SDS011;23642;42.658;23.350;2023-06-05T20:51:26;101.27;;;94.83;;
2035;SDS011;23642;42.658;23.350;2023-06-05T20:53:58;98.40;;;92.30;;
2035;SDS011;23642;42.658;23.350;2023-06-05T20:56:36;100.67;;;94.57;;
2035;SDS011;23642;42.658;23.350;2023-06-05T20:59:10;100.97;;;94.77;;
2035;SDS011;23642;42.658;23.350;2023-06-05T21:02:17;98.20;;;91.90;;
2035;SDS011;23642;42.658;23.350;2023-06-05T21:04:46;100.33;;;94.23;;
2035;SDS011;23642;42.658;23.350;2023-06-05T21:07:33;100.30;;;94.10;;
2035;SDS011;23642;42.658;23.350;2023-06-05T21:10:08;97.03;;;91.03;;
2035;SDS011;23642;42.658;23.350;2023-06-05T21:12:44;98.17;;;92.27;;
2035;SDS011;23642;42.658;23.350;2023-06-05T21:15:24;100.80;;;94.70;;
2035;SDS011;23642;42.658;23.350;2023-06-05T21:18:11;102.70;;;96.40;;
2035;SDS011;23642;42.658;23.350;2023-06-05T21:20:40;102.17;;;96.20;;
2035;SDS011;23642;42.658;23.350;2023-06-05T21:23:21;101.90;;;95.60;;
2035;SDS011;23642;42.658;23.350;2023-06-05T21:25:52;99.63;;;93.30;;
2035;SDS011;23642;42.658;23.350;2023-06-05T21:28:28;101.43;;;95.37;;
2035;SDS011;23642;42.658;23.350;2023-06-05T21:31:01;99.03;;;93.13;;
2035;SDS011;23642;42.658;23.350;2023-06-05T21:33:42;100.87;;;94.63;;
2035;SDS011;23642;42.658;23.350;2023-06-05T21:36:14;98.80;;;92.90;;
2035;SDS011;23642;42.658;23.350;2023-06-05T21:38:48;100.97;;;94.73;;
2035;SDS011;23642;42.658;23.350;2023-06-05T21:41:38;101.03;;;94.90;;
2035;SDS011;23642;42.658;23.350;2023-06-05T21:44:06;101.50;;;95.50;;
2035;SDS011;23642;42.658;23.350;2023-06-05T21:46:49;101.87;;;95.73;;
2035;SDS011;23642;42.658;23.350;2023-06-05T21:49:23;98.83;;;93.10;;
2035;SDS011;23642;42.658;23.350;2023-06-05T21:52:03;97.33;;;91.63;;
2035;SDS011;23642;42.658;23.350;2023-06-05T21:54:40;99.30;;;93.50;;
2035;SDS011;23642;42.658;23.350;2023-06-05T21:59:58;95.97;;;90.37;;
2035;SDS011;23642;42.658;23.350;2023-06-05T22:02:30;101.97;;;95.87;;
2035;SDS011;23642;42.658;23.350;2023-06-05T22:04:58;100.50;;;94.60;;
2035;SDS011;23642;42.658;23.350;2023-06-05T22:07:39;95.73;;;90.00;;
2035;SDS011;23642;42.658;23.350;2023-06-05T22:10:09;99.60;;;93.80;;
2035;SDS011;23642;42.658;23.350;2023-06-05T22:12:40;99.33;;;93.63;;
2035;SDS011;23642;42.658;23.350;2023-06-05T22:15:13;96.00;;;90.40;;
2035;SDS011;23642;42.658;23.350;2023-06-05T22:17:55;99.97;;;94.27;;
2035;SDS011;23642;42.658;23.350;2023-06-05T22:20:33;98.97;;;92.80;;
2035;SDS011;23642;42.658;23.350;2023-06-05T22:23:31;96.03;;;90.27;;
2035;SDS011;23642;42.658;23.350;2023-06-05T22:26:22;101.43;;;95.53;;
2035;SDS011;23642;42.658;23.350;2023-06-05T22:28:57;100.73;;;94.73;;
2035;SDS011;23642;42.658;23.350;2023-06-05T22:31:29;99.00;;;93.20;;
2035;SDS011;23642;42.658;23.350;2023-06-05T22:34:17;101.77;;;95.90;;
2035;SDS011;23642;42.658;23.350;2023-06-05T22:36:47;100.37;;;94.43;;
2035;SDS011;23642;42.658;23.350;2023-06-05T22:39:33;98.40;;;92.90;;
2035;SDS011;23642;42.658;23.350;2023-06-05T22:42:04;99.50;;;93.80;;
2035;SDS011;23642;42.658;23.350;2023-06-05T22:44:35;94.93;;;89.23;;
2035;SDS011;23642;42.658;23.350;2023-06-05T22:47:03;97.20;;;91.70;;
2035;SDS011;23642;42.658;23.350;2023-06-05T22:49:34;96.97;;;91.37;;
2035;SDS011;23642;42.658;23.350;2023-06-05T22:52:20;95.90;;;90.30;;
2035;SDS011;23642;42.658;23.350;2023-06-05T22:54:55;96.23;;;90.60;;
2035;SDS011;23642;42.658;23.350;2023-06-05T22:57:45;100.53;;;94.73;;
2035;SDS011;23642;42.658;23.350;2023-06-05T23:00:23;97.67;;;91.80;;
2035;SDS011;23642;42.658;23.350;2023-06-05T23:02:54;97.20;;;91.50;;
2035;SDS011;23642;42.658;23.350;2023-06-05T23:05:22;96.07;;;90.60;;
2035;SDS011;23642;42.658;23.350;2023-06-05T23:07:52;101.40;;;95.70;;
2035;SDS011;23642;42.658;23.350;2023-06-05T23:10:25;100.80;;;95.10;;
2035;SDS011;23642;42.658;23.350;2023-06-05T23:12:52;97.50;;;91.90;;
2035;SDS011;23642;42.658;23.350;2023-06-05T23:15:21;99.50;;;93.80;;
2035;SDS011;23642;42.658;23.350;2023-06-05T23:17:52;100.73;;;94.93;;
2035;SDS011;23642;42.658;23.350;2023-06-05T23:20:22;99.50;;;93.80;;
2035;SDS011;23642;42.658;23.350;2023-06-05T23:22:53;97.87;;;92.03;;
2035;SDS011;23642;42.658;23.350;2023-06-05T23:25:23;97.50;;;91.67;;
2035;SDS011;23642;42.658;23.350;2023-06-05T23:27:53;98.27;;;92.63;;
2035;SDS011;23642;42.658;23.350;2023-06-05T23:30:31;98.93;;;93.23;;
2035;SDS011;23642;42.658;23.350;2023-06-05T23:33:04;101.47;;;95.47;;
2035;SDS011;23642;42.658;23.350;2023-06-05T23:35:37;100.30;;;94.03;;
2035;SDS011;23642;42.658;23.350;2023-06-05T23:38:16;96.87;;;91.33;;
2035;SDS011;23642;42.658;23.350;2023-06-05T23:40:58;99.20;;;93.50;;
2035;SDS011;23642;42.658;23.350;2023-06-05T23:43:45;102.30;;;96.50;;
2035;SDS011;23642;42.658;23.350;2023-06-05T23:46:16;101.03;;;94.93;;
2035;SDS011;23642;42.658;23.350;2023-06-05T23:48:47;102.63;;;96.70;;
2035;SDS011;23642;42.658;23.350;2023-06-05T23:51:20;101.60;;;95.60;;
2035;SDS011;23642;42.658;23.350;2023-06-05T23:54:04;101.40;;;95.50;;
2035;SDS011;23642;42.658;23.350;2023-06-05T23:56:57;96.73;;;91.07;;
2035;SDS011;23642;42.658;23.350;2023-06-05T23:59:40;103.17;;;97.17;;
